createdAt,value
2018-06-02T00:02:16.496Z,44.75
2018-06-02T00:04:43.974Z,48.70
2018-06-02T00:07:11.437Z,51.17
2018-06-02T00:09:38.902Z,47.00
2018-06-02T00:12:06.333Z,47.50
2018-06-02T00:14:33.891Z,47.10
2018-06-02T00:17:01.365Z,45.33
2018-06-02T00:19:28.869Z,45.35
2018-06-02T00:21:56.301Z,48.45
2018-06-02T00:24:23.756Z,50.12
2018-06-02T00:26:51.202Z,51.67
2018-06-02T00:29:18.648Z,46.92
2018-06-02T00:31:46.094Z,50.70
2018-06-02T00:34:13.562Z,51.10
2018-06-02T00:36:41.010Z,52.00
2018-06-02T00:39:08.467Z,54.13
2018-06-02T00:41:36.221Z,54.17
2018-06-02T00:44:03.704Z,53.80
2018-06-02T00:46:31.139Z,48.80
2018-06-02T00:48:58.582Z,47.95
2018-06-02T00:51:26.065Z,46.90
2018-06-02T00:53:53.520Z,47.35
2018-06-02T00:56:20.969Z,46.60
2018-06-02T00:58:48.419Z,45.95
2018-06-02T01:01:15.881Z,47.38
2018-06-02T01:03:43.304Z,46.00
2018-06-02T01:06:10.769Z,46.00
2018-06-02T01:08:38.211Z,45.90
2018-06-02T01:11:06.437Z,44.92
2018-06-02T01:13:33.981Z,47.13
2018-06-02T01:16:01.404Z,49.97
2018-06-02T01:18:28.843Z,50.83
2018-06-02T01:20:57.084Z,52.95
2018-06-02T01:23:24.488Z,53.70
2018-06-02T01:25:51.936Z,55.53
2018-06-02T01:28:20.180Z,56.15
2018-06-02T01:30:47.729Z,56.17
2018-06-02T01:33:15.160Z,56.47
2018-06-02T01:35:42.605Z,58.10
2018-06-02T01:38:10.079Z,58.40
2018-06-02T01:40:37.525Z,58.33
2018-06-02T01:43:05.758Z,59.08
2018-06-02T01:45:33.965Z,55.78
2018-06-02T01:48:01.407Z,53.20
2018-06-02T01:50:29.827Z,51.90
2018-06-02T01:52:57.272Z,51.75
2018-06-02T01:55:24.725Z,51.15
2018-06-02T01:57:52.169Z,54.70
2018-06-02T02:00:19.622Z,53.72
2018-06-02T02:02:47.060Z,55.67
2018-06-02T02:05:15.288Z,55.50
2018-06-02T02:07:42.742Z,58.67
2018-06-02T02:10:11.049Z,58.70
2018-06-02T02:12:38.500Z,56.83
2018-06-02T02:15:05.940Z,59.92
2018-06-02T02:17:33.456Z,59.75
2018-06-02T02:20:00.906Z,58.25
2018-06-02T02:22:29.120Z,60.17
2018-06-02T02:24:56.588Z,60.42
2018-06-02T02:27:24.036Z,58.70
2018-06-02T02:29:51.497Z,60.70
2018-06-02T02:32:18.964Z,61.17
2018-06-02T02:34:46.409Z,62.97
2018-06-02T02:37:13.863Z,62.38
2018-06-02T02:39:41.290Z,62.97
2018-06-02T02:42:08.728Z,66.45
2018-06-02T02:44:36.940Z,67.37
2018-06-02T02:47:04.372Z,75.50
2018-06-02T02:49:31.825Z,79.60
2018-06-02T02:51:59.272Z,80.35
2018-06-02T02:54:28.024Z,80.35
2018-06-02T02:56:55.461Z,83.72
2018-06-02T02:59:22.938Z,89.25
2018-06-02T03:01:50.473Z,95.80
2018-06-02T03:04:18.040Z,101.50
2018-06-02T03:06:45.500Z,108.30
2018-06-02T03:09:12.950Z,112.70
2018-06-02T03:11:40.404Z,118.80
2018-06-02T03:14:07.878Z,128.30
2018-06-02T03:16:35.324Z,137.30
2018-06-02T03:19:02.762Z,140.90
2018-06-02T03:21:30.214Z,143.35
2018-06-02T03:23:57.657Z,150.27
2018-06-02T03:26:25.164Z,154.05
2018-06-02T03:28:52.613Z,154.48
2018-06-02T03:31:20.077Z,162.18
2018-06-02T03:33:47.516Z,165.50
2018-06-02T03:36:14.975Z,164.68
2018-06-02T03:38:42.419Z,166.23
2018-06-02T03:41:09.872Z,168.68
2018-06-02T03:43:37.316Z,165.40
2018-06-02T03:46:04.777Z,162.73
2018-06-02T03:48:32.232Z,166.55
2018-06-02T03:50:59.692Z,164.15
2018-06-02T03:53:27.141Z,162.68
2018-06-02T03:55:54.602Z,167.13
2018-06-02T03:58:22.056Z,171.32
2018-06-02T04:00:49.505Z,171.87
2018-06-02T04:03:16.978Z,170.43
2018-06-02T04:05:44.429Z,174.73
2018-06-02T04:08:11.883Z,175.02
2018-06-02T04:10:39.345Z,176.68
2018-06-02T04:13:06.785Z,179.05
2018-06-02T04:15:34.995Z,178.17
2018-06-02T04:18:02.456Z,184.82
2018-06-02T04:20:29.930Z,186.32
2018-06-02T04:22:57.379Z,183.40
2018-06-02T04:25:24.821Z,183.62
2018-06-02T04:27:52.277Z,184.63
2018-06-02T04:30:19.732Z,185.43
2018-06-02T04:32:47.192Z,186.10
2018-06-02T04:35:14.673Z,185.95
2018-06-02T04:37:42.118Z,182.55
2018-06-02T04:40:09.569Z,185.35
2018-06-02T04:42:37.042Z,187.00
2018-06-02T04:45:04.493Z,187.25
2018-06-02T04:47:31.941Z,193.62
2018-06-02T04:49:59.397Z,195.48
2018-06-02T04:52:26.852Z,184.40
2018-06-02T04:54:54.320Z,182.68
2018-06-02T04:57:21.788Z,181.00
2018-06-02T04:59:49.341Z,179.80
2018-06-02T05:02:16.788Z,179.77
2018-06-02T05:04:44.240Z,176.80
2018-06-02T05:07:11.693Z,168.32
2018-06-02T05:09:39.156Z,158.90
2018-06-02T05:12:06.604Z,151.27
2018-06-02T05:14:34.075Z,148.85
2018-06-02T05:17:01.520Z,142.00
2018-06-02T05:19:29.005Z,144.77
2018-06-02T05:21:56.460Z,136.93
2018-06-02T05:24:24.741Z,132.85
2018-06-02T05:26:52.196Z,127.45
2018-06-02T05:29:19.653Z,130.27
2018-06-02T05:31:47.166Z,129.80
2018-06-02T05:34:14.632Z,124.00
2018-06-02T05:36:42.104Z,126.70
2018-06-02T05:39:09.573Z,129.10
2018-06-02T05:41:37.031Z,132.05
2018-06-02T05:44:04.480Z,136.20
2018-06-02T05:46:31.939Z,137.95
2018-06-02T05:48:59.384Z,138.20
2018-06-02T05:51:26.836Z,139.90
2018-06-02T05:53:54.279Z,140.70
2018-06-02T05:56:21.772Z,146.48
2018-06-02T05:58:49.237Z,144.02
2018-06-02T06:01:16.681Z,138.57
2018-06-02T06:03:44.175Z,134.12
2018-06-02T06:06:12.388Z,135.98
2018-06-02T06:08:39.847Z,136.65
2018-06-02T06:11:07.297Z,120.37
2018-06-02T06:13:34.856Z,113.50
2018-06-02T06:16:02.276Z,100.70
2018-06-02T06:18:30.592Z,141.82
2018-06-02T06:20:58.049Z,123.13
2018-06-02T06:23:25.493Z,87.72
2018-06-02T06:25:52.941Z,87.07
2018-06-02T06:28:20.381Z,80.70
2018-06-02T06:30:48.582Z,76.75
2018-06-02T06:33:16.024Z,80.03
2018-06-02T06:35:43.500Z,87.00
2018-06-02T06:38:10.934Z,95.35
2018-06-02T06:40:39.153Z,102.38
2018-06-02T06:43:06.692Z,108.78
2018-06-02T06:45:34.151Z,121.40
2018-06-02T06:48:01.705Z,123.03
2018-06-02T06:50:29.158Z,117.50
2018-06-02T06:52:56.613Z,114.23
2018-06-02T06:55:24.063Z,109.18
2018-06-02T06:57:51.513Z,104.15
2018-06-02T07:00:18.956Z,110.37
2018-06-02T07:02:47.173Z,111.37
2018-06-02T07:05:14.623Z,112.75
2018-06-02T07:07:42.074Z,112.30
2018-06-02T07:10:09.519Z,115.88
2018-06-02T07:12:37.001Z,112.22
2018-06-02T07:15:04.432Z,109.40
2018-06-02T07:17:31.897Z,104.05
2018-06-02T07:19:59.353Z,93.80
2018-06-02T07:22:26.825Z,99.72
2018-06-02T07:24:54.292Z,95.95
2018-06-02T07:27:21.720Z,96.35
2018-06-02T07:29:49.160Z,90.25
2018-06-02T07:32:16.601Z,92.93
2018-06-02T07:34:44.810Z,86.90
2018-06-02T07:37:12.271Z,77.55
2018-06-02T07:39:39.725Z,79.90
2018-06-02T07:42:07.185Z,74.17
2018-06-02T07:44:34.628Z,71.10
2018-06-02T07:47:02.873Z,68.47
2018-06-02T07:49:30.344Z,64.35
2018-06-02T07:51:57.861Z,67.47
2018-06-02T07:54:25.316Z,67.15
2018-06-02T07:56:53.552Z,65.95
2018-06-02T07:59:21.016Z,65.80
2018-06-02T08:01:48.463Z,74.93
2018-06-02T08:04:15.916Z,66.97
2018-06-02T08:06:43.341Z,65.57
2018-06-02T08:09:11.576Z,66.78
2018-06-02T08:11:39.019Z,65.87
2018-06-02T08:14:06.497Z,69.32
2018-06-02T08:16:33.918Z,68.00
2018-06-02T08:19:01.430Z,71.05
2018-06-02T08:21:28.883Z,68.40
2018-06-02T08:23:56.316Z,66.12
2018-06-02T08:26:23.770Z,67.23
2018-06-02T08:28:51.215Z,69.18
2018-06-02T08:31:18.662Z,71.05
2018-06-02T08:33:46.136Z,68.50
2018-06-02T08:36:13.598Z,71.78
2018-06-02T08:38:41.869Z,75.20
2018-06-02T08:41:09.308Z,76.15
2018-06-02T08:43:36.773Z,68.90
2018-06-02T08:46:04.431Z,65.15
2018-06-02T08:48:31.909Z,65.07
2018-06-02T08:50:59.369Z,62.42
2018-06-02T08:53:26.812Z,59.92
2018-06-02T08:55:54.267Z,54.05
2018-06-02T08:58:21.720Z,51.07
2018-06-02T09:00:49.171Z,51.05
2018-06-02T09:03:16.668Z,52.20
2018-06-02T09:05:44.117Z,51.47
2018-06-02T09:08:11.738Z,53.05
2018-06-02T09:10:39.168Z,51.88
2018-06-02T09:13:07.381Z,51.03
2018-06-02T09:15:34.872Z,53.47
2018-06-02T09:18:02.316Z,51.92
2018-06-02T09:20:29.801Z,52.33
2018-06-02T09:22:58.038Z,52.62
2018-06-02T09:25:25.509Z,55.10
2018-06-02T09:27:53.006Z,49.78
2018-06-02T09:30:21.192Z,44.40
2018-06-02T09:32:48.673Z,47.45
2018-06-02T09:35:16.166Z,44.70
2018-06-02T09:37:43.604Z,43.87
2018-06-02T09:40:11.164Z,43.55
2018-06-02T09:42:38.795Z,45.58
2018-06-02T09:45:06.229Z,46.25
2018-06-02T09:47:33.676Z,47.55
2018-06-02T09:50:02.288Z,48.55
2018-06-02T09:52:29.716Z,45.72
2018-06-02T09:54:58.024Z,43.80
2018-06-02T09:57:25.486Z,43.10
2018-06-02T09:59:53.004Z,43.25
2018-06-02T10:02:20.433Z,42.25
2018-06-02T10:04:48.671Z,41.75
2018-06-02T10:07:16.144Z,40.70
2018-06-02T10:09:43.682Z,35.38
2018-06-02T10:12:11.112Z,30.15
2018-06-02T10:14:39.629Z,28.40
2018-06-02T10:17:07.077Z,24.20
2018-06-02T10:19:34.549Z,22.90
2018-06-02T10:22:02.022Z,21.33
2018-06-02T10:24:29.449Z,21.58
2018-06-02T10:26:56.924Z,21.92
2018-06-02T10:29:24.364Z,21.12
2018-06-02T10:31:51.937Z,22.30
2018-06-02T10:34:19.384Z,19.70
2018-06-02T10:36:46.820Z,22.55
2018-06-02T10:39:14.312Z,25.83
2018-06-02T10:41:41.764Z,22.75
2018-06-02T10:44:09.257Z,22.37
2018-06-02T10:46:36.685Z,21.50
2018-06-02T10:49:04.218Z,20.58
2018-06-02T10:51:31.661Z,20.60
2018-06-02T10:53:59.132Z,21.52
2018-06-02T10:56:26.688Z,20.77
2018-06-02T10:58:54.174Z,20.88
2018-06-02T11:01:21.608Z,20.48
2018-06-02T11:03:49.060Z,22.50
2018-06-02T11:06:16.549Z,22.73
2018-06-02T11:08:44.009Z,21.92
2018-06-02T11:11:11.453Z,22.30
2018-06-02T11:13:38.930Z,24.65
2018-06-02T11:16:06.364Z,21.87
2018-06-02T11:18:33.904Z,20.30
2018-06-02T11:21:01.361Z,20.30
2018-06-02T11:23:28.841Z,19.40
2018-06-02T11:25:56.280Z,23.97
2018-06-02T11:28:23.731Z,27.37
2018-06-02T11:30:51.307Z,29.60
2018-06-02T11:33:18.773Z,29.00
2018-06-02T11:35:46.232Z,29.87
2018-06-02T11:38:13.693Z,30.48
2018-06-02T11:40:41.248Z,30.25
2018-06-02T11:43:08.688Z,30.65
2018-06-02T11:45:36.145Z,30.15
2018-06-02T11:48:03.579Z,29.40
2018-06-02T11:50:31.140Z,28.40
2018-06-02T11:52:58.605Z,28.57
2018-06-02T11:55:26.800Z,27.87
2018-06-02T11:57:54.268Z,26.90
2018-06-02T12:00:21.749Z,26.95
2018-06-02T12:02:49.958Z,28.58
2018-06-02T12:05:17.419Z,29.77
2018-06-02T12:07:44.886Z,28.00
2018-06-02T12:10:12.377Z,27.77
2018-06-02T12:12:39.818Z,26.52
2018-06-02T12:15:07.351Z,27.98
2018-06-02T12:17:34.789Z,28.90
2018-06-02T12:20:02.264Z,29.90
2018-06-02T12:22:29.696Z,30.65
2018-06-02T12:24:57.141Z,27.05
2018-06-02T12:27:25.354Z,26.90
2018-06-02T12:29:52.908Z,25.52
2018-06-02T12:32:20.333Z,25.60
2018-06-02T12:34:48.598Z,27.98
2018-06-02T12:37:16.003Z,29.08
2018-06-02T12:39:43.550Z,28.42
2018-06-02T12:42:10.977Z,29.52
2018-06-02T12:44:39.245Z,33.55
2018-06-02T12:47:07.499Z,35.67
2018-06-02T12:49:36.501Z,34.08
2018-06-02T12:52:04.683Z,33.90
2018-06-02T12:54:32.898Z,36.10
2018-06-02T12:57:00.355Z,36.67
2018-06-02T12:59:27.845Z,36.03
2018-06-02T13:01:55.395Z,34.80
2018-06-02T13:04:22.835Z,38.10
2018-06-02T13:06:50.281Z,40.63
2018-06-02T13:09:17.727Z,38.95
2018-06-02T13:11:45.228Z,38.92
2018-06-02T13:14:12.686Z,40.50
2018-06-02T13:16:40.246Z,39.00
2018-06-02T13:19:07.689Z,39.25
2018-06-02T13:21:35.130Z,38.00
2018-06-02T13:24:02.581Z,38.00
2018-06-02T13:26:30.024Z,39.20
2018-06-02T13:28:57.517Z,42.88
2018-06-02T13:31:25.029Z,45.80
2018-06-02T13:33:52.465Z,44.00
2018-06-02T13:36:20.668Z,47.07
2018-06-02T13:38:48.121Z,44.63
2018-06-02T13:41:16.321Z,44.20
2018-06-02T13:43:43.799Z,42.20
2018-06-02T13:46:11.248Z,41.08
2018-06-02T13:48:38.704Z,42.08
2018-06-02T13:51:06.150Z,43.00
2018-06-02T13:53:33.593Z,49.63
2018-06-02T13:56:01.069Z,49.53
2018-06-02T13:58:28.538Z,47.10
2018-06-02T14:00:55.976Z,43.65
2018-06-02T14:03:23.428Z,42.97
2018-06-02T14:05:50.878Z,45.95
2018-06-02T14:08:18.335Z,46.85
2018-06-02T14:10:45.814Z,49.97
2018-06-02T14:13:13.256Z,48.40
2018-06-02T14:15:40.700Z,47.70
2018-06-02T14:18:08.133Z,48.05
2018-06-02T14:20:35.596Z,45.30
2018-06-02T14:23:03.786Z,50.97
2018-06-02T14:25:31.310Z,54.45
2018-06-02T14:27:58.725Z,53.83
2018-06-02T14:30:26.160Z,55.33
2018-06-02T14:32:53.637Z,58.42
2018-06-02T14:35:21.146Z,56.30
2018-06-02T14:37:49.455Z,58.53
2018-06-02T14:40:16.919Z,59.53
2018-06-02T14:42:44.390Z,56.65
2018-06-02T14:45:11.918Z,58.10
2018-06-02T14:47:39.369Z,58.10
2018-06-02T14:50:06.880Z,55.17
2018-06-02T14:52:34.429Z,53.70
2018-06-02T14:55:01.936Z,55.00
2018-06-02T14:57:29.358Z,55.53
2018-06-02T14:59:58.337Z,56.20
2018-06-02T15:02:25.773Z,56.55
2018-06-02T15:04:54.118Z,56.83
2018-06-02T15:07:21.586Z,55.83
2018-06-02T15:09:49.048Z,51.97
2018-06-02T15:12:16.506Z,53.15
2018-06-02T15:14:43.943Z,50.40
2018-06-02T15:17:11.527Z,50.47
2018-06-02T15:19:38.995Z,53.50
2018-06-02T15:22:06.479Z,51.22
2018-06-02T15:24:33.924Z,50.53
2018-06-02T15:27:01.377Z,48.58
2018-06-02T15:29:28.837Z,50.70
2018-06-02T15:31:56.290Z,49.22
2018-06-02T15:34:23.813Z,47.72
2018-06-02T15:36:51.267Z,48.97
2018-06-02T15:39:18.711Z,50.65
2018-06-02T15:41:46.197Z,52.53
2018-06-02T15:44:13.713Z,53.25
2018-06-02T15:46:42.038Z,55.03
2018-06-02T15:49:09.579Z,57.03
2018-06-02T15:51:37.105Z,55.42
2018-06-02T15:54:05.314Z,55.83
2018-06-02T15:56:32.762Z,55.38
2018-06-02T15:59:00.202Z,54.53
2018-06-02T16:01:28.432Z,53.97
2018-06-02T16:03:55.972Z,52.88
2018-06-02T16:06:23.524Z,53.22
2018-06-02T16:08:50.952Z,52.95
2018-06-02T16:11:18.399Z,52.28
2018-06-02T16:13:46.668Z,54.60
2018-06-02T16:16:14.906Z,54.22
2018-06-02T16:18:42.354Z,54.55
2018-06-02T16:21:09.810Z,55.67
2018-06-02T16:23:37.347Z,55.10
2018-06-02T16:26:04.787Z,52.75
2018-06-02T16:28:32.240Z,54.42
2018-06-02T16:31:00.484Z,55.15
2018-06-02T16:33:27.939Z,56.90
2018-06-02T16:35:55.401Z,55.42
2018-06-02T16:38:24.388Z,52.95
2018-06-02T16:40:51.848Z,52.45
2018-06-02T16:43:19.421Z,51.08
2018-06-02T16:45:47.663Z,51.75
2018-06-02T16:48:15.197Z,50.90
2018-06-02T16:50:42.641Z,53.40
2018-06-02T16:53:10.223Z,56.05
2018-06-02T16:55:37.808Z,56.13
2018-06-02T16:58:05.359Z,55.92
2018-06-02T17:00:32.843Z,55.75
2018-06-02T17:03:00.288Z,57.17
2018-06-02T17:05:27.825Z,54.35
2018-06-02T17:07:55.385Z,55.50
2018-06-02T17:10:22.912Z,57.22
2018-06-02T17:12:50.368Z,53.17
2018-06-02T17:15:17.939Z,53.80
2018-06-02T17:17:45.384Z,53.72
2018-06-02T17:22:46.691Z,54.67
2018-06-02T17:25:14.120Z,57.15
2018-06-02T17:27:41.673Z,57.70
2018-06-02T17:30:09.126Z,56.22
2018-06-02T17:34:51.959Z,60.30
2018-06-02T17:37:20.154Z,60.83
2018-06-02T17:39:48.254Z,63.35
2018-06-02T17:42:16.360Z,61.68
2018-06-02T17:44:44.501Z,61.75
2018-06-02T17:47:12.573Z,59.18
2018-06-02T17:49:40.649Z,57.10
2018-06-02T17:52:08.705Z,56.70
2018-06-02T17:54:36.738Z,56.28
2018-06-02T17:57:04.932Z,56.45
2018-06-02T17:59:33.251Z,53.33
2018-06-02T18:02:01.425Z,53.35
2018-06-02T18:04:30.203Z,52.08
2018-06-02T18:06:58.308Z,52.60
2018-06-02T18:09:26.483Z,51.08
2018-06-02T18:11:54.744Z,51.53
2018-06-02T18:14:22.840Z,51.50
2018-06-02T18:16:50.928Z,50.80
2018-06-02T18:19:19.046Z,50.50
2018-06-02T18:21:47.184Z,51.80
2018-06-02T18:24:15.457Z,51.58
2018-06-02T18:26:43.859Z,50.50
2018-06-02T18:29:12.014Z,50.50
2018-06-02T18:31:40.052Z,50.35
2018-06-02T18:34:08.196Z,51.63
2018-06-02T18:36:36.269Z,47.63
2018-06-02T18:39:05.772Z,49.55
2018-06-02T18:41:33.871Z,48.55
2018-06-02T18:44:02.237Z,49.53
2018-06-02T18:46:30.410Z,49.03
2018-06-02T18:48:58.482Z,50.98
2018-06-02T18:51:26.593Z,50.78
2018-06-02T18:53:54.741Z,53.28
2018-06-02T18:56:22.854Z,54.63
2018-06-02T18:58:50.896Z,53.83
2018-06-02T19:01:18.987Z,55.33
2018-06-02T19:03:47.045Z,53.85
2018-06-02T19:06:15.123Z,55.80
2018-06-02T19:08:43.254Z,57.33
2018-06-02T19:11:11.330Z,58.55
2018-06-02T19:13:39.398Z,58.33
2018-06-02T19:16:07.454Z,55.45
2018-06-02T19:18:35.545Z,56.48
2018-06-02T19:21:03.740Z,56.83
2018-06-02T19:23:32.149Z,55.93
2018-06-02T19:26:00.209Z,56.77
2018-06-02T19:28:28.476Z,53.52
2018-06-02T19:30:56.544Z,52.50
2018-06-02T19:33:24.691Z,50.67
2018-06-02T19:35:52.723Z,51.60
2018-06-02T19:38:20.813Z,51.00
2018-06-02T19:40:48.952Z,51.30
2018-06-02T19:43:17.105Z,52.05
2018-06-02T19:45:45.177Z,50.90
2018-06-02T19:48:13.286Z,50.50
2018-06-02T19:50:41.475Z,49.73
2018-06-02T19:53:09.681Z,50.35
2018-06-02T19:55:37.822Z,49.95
2018-06-02T19:58:06.003Z,52.40
2018-06-02T20:00:34.175Z,50.43
2018-06-02T20:03:02.313Z,51.90
2018-06-02T20:05:30.367Z,52.80
2018-06-02T20:07:58.492Z,54.20
2018-06-02T20:10:26.581Z,54.10
2018-06-02T20:12:54.623Z,53.83
2018-06-02T20:15:22.675Z,53.95
2018-06-02T20:17:50.767Z,55.38
2018-06-02T20:20:18.813Z,55.00
2018-06-02T20:22:46.888Z,56.48
2018-06-02T20:25:14.985Z,55.03
2018-06-02T20:27:43.153Z,53.73
2018-06-02T20:30:11.325Z,56.55
2018-06-02T20:32:39.412Z,55.75
2018-06-02T20:35:07.568Z,55.65
2018-06-02T20:37:35.664Z,56.80
2018-06-02T20:40:03.731Z,58.48
2018-06-02T20:42:31.840Z,58.90
2018-06-02T20:44:59.941Z,61.28
2018-06-02T20:47:27.986Z,60.33
2018-06-02T20:49:56.067Z,59.18
2018-06-02T20:52:24.090Z,63.68
2018-06-02T20:54:52.202Z,63.68
2018-06-02T20:57:20.353Z,62.27
2018-06-02T20:59:48.563Z,66.62
2018-06-02T21:02:16.653Z,69.33
2018-06-02T21:04:44.825Z,67.58
2018-06-02T21:07:12.900Z,68.02
2018-06-02T21:09:40.997Z,64.35
2018-06-02T21:12:09.090Z,69.45
2018-06-02T21:14:37.174Z,67.80
2018-06-02T21:17:05.284Z,67.03
2018-06-02T21:19:33.442Z,69.77
2018-06-02T21:22:01.524Z,68.55
2018-06-02T21:24:29.614Z,67.20
2018-06-02T21:26:57.636Z,69.17
2018-06-02T21:29:25.676Z,73.50
2018-06-02T21:31:53.721Z,72.80
2018-06-02T21:34:21.729Z,74.80
2018-06-02T21:36:49.773Z,71.22
2018-06-02T21:39:17.867Z,75.00
2018-06-02T21:41:45.935Z,75.15
2018-06-02T21:44:14.052Z,77.05
2018-06-02T21:46:42.231Z,79.45
2018-06-02T21:49:10.980Z,73.83
2018-06-02T21:51:39.048Z,77.08
2018-06-02T21:54:07.114Z,79.85
2018-06-02T21:56:35.196Z,80.10
2018-06-02T21:59:03.074Z,76.30
2018-06-02T22:01:31.100Z,78.85
2018-06-02T22:03:59.136Z,83.83
2018-06-02T22:06:27.311Z,77.42
2018-06-02T22:08:55.577Z,75.70
2018-06-02T22:11:30.546Z,78.95
2018-06-02T22:13:58.617Z,77.90
2018-06-02T22:16:26.796Z,77.85
2018-06-02T22:18:54.865Z,80.92
2018-06-02T22:21:23.020Z,76.47
2018-06-02T22:23:51.077Z,79.95
2018-06-02T22:26:19.145Z,78.47
2018-06-02T22:28:47.196Z,79.55
2018-06-02T22:31:15.290Z,79.05
2018-06-02T22:33:43.356Z,87.02
2018-06-02T22:36:11.437Z,77.72
2018-06-02T22:38:39.473Z,77.90
2018-06-02T22:41:07.517Z,80.15
2018-06-02T22:43:35.593Z,80.15
2018-06-02T22:46:03.672Z,78.05
2018-06-02T22:48:31.764Z,83.35
2018-06-02T22:50:59.866Z,79.33
2018-06-02T22:53:27.936Z,82.12
2018-06-02T22:55:56.051Z,81.87
2018-06-02T22:58:23.904Z,79.58
2018-06-02T23:00:51.971Z,81.02
2018-06-02T23:03:20.026Z,80.60
2018-06-02T23:05:48.272Z,76.97
2018-06-02T23:08:16.401Z,77.30
2018-06-02T23:10:44.448Z,73.22
2018-06-02T23:13:12.501Z,72.75
2018-06-02T23:15:40.600Z,71.07
2018-06-02T23:18:08.625Z,65.45
2018-06-02T23:20:36.680Z,62.85
2018-06-02T23:23:04.829Z,62.62
2018-06-02T23:25:32.881Z,64.12
2018-06-02T23:28:01.004Z,58.33
2018-06-02T23:30:29.073Z,59.13
2018-06-02T23:32:57.149Z,59.55
2018-06-02T23:35:25.196Z,61.28
2018-06-02T23:37:53.268Z,61.35
2018-06-02T23:40:21.367Z,59.88
2018-06-02T23:42:49.409Z,60.78
2018-06-02T23:45:17.431Z,59.75
2018-06-02T23:47:45.493Z,61.30
2018-06-02T23:50:13.573Z,62.90
2018-06-02T23:52:41.620Z,62.53
2018-06-02T23:55:09.630Z,63.10
2018-06-02T23:57:37.680Z,63.02
